Time;durP1;ratioP1;P1;durP2;ratioP2;P2;SDS_P1;SDS_P2;PMS_P1;PMS_P2;Temp;Humidity;BMP_temperature;BMP_pressure;BME280_temperature;BME280_humidity;BME280_pressure;Samples;Min_cycle;Max_cycle;Signal;HPM_P1;HPM_P2
2022/02/03 00:00:18;;;;;;;14.52;11.07;;;8.80;99.90;;;;;;5055336;28;20209;-67
2022/02/03 00:02:55;;;;;;;12.38;10.98;;;8.80;99.90;;;;;;5055342;28;20200;-67
2022/02/03 00:05:31;;;;;;;14.75;11.82;;;8.80;99.90;;;;;;5055633;28;20235;-67
2022/02/03 00:08:06;;;;;;;13.15;11.60;;;8.80;99.90;;;;;;5054999;28;20312;-67
2022/02/03 00:10:48;;;;;;;16.70;13.23;;;8.60;99.90;;;;;;5055042;28;20203;-68
2022/02/03 00:24:28;;;;;;;20.95;17.48;;;8.10;99.90;;;;;;5055076;28;20264;-68
2022/02/03 00:27:04;;;;;;;23.15;18.48;;;7.90;99.90;;;;;;5055094;28;20202;-69
2022/02/03 00:49:12;;;;;;;20.60;16.52;;;7.70;99.90;;;;;;5031464;28;20245;-69
2022/02/03 00:51:44;;;;;;;15.88;13.95;;;7.90;99.90;;;;;;5054355;28;20278;-68
2022/02/03 00:54:11;;;;;;;20.92;14.15;;;8.10;99.90;;;;;;5054742;28;20188;-68
2022/02/03 00:56:41;;;;;;;16.02;13.98;;;8.20;99.90;;;;;;5054429;28;20612;-68
2022/02/03 00:59:11;;;;;;;22.75;15.13;;;8.20;99.90;;;;;;5054401;28;20618;-69
2022/02/03 01:01:42;;;;;;;21.90;17.65;;;8.10;99.90;;;;;;5054455;28;20199;-69
2022/02/03 01:04:11;;;;;;;29.90;20.10;;;8.00;99.90;;;;;;5054148;28;20203;-69
2022/02/03 01:06:44;;;;;;;24.90;19.58;;;7.90;99.90;;;;;;5053979;28;20289;-69
2022/02/03 01:09:13;;;;;;;22.92;19.25;;;7.80;99.90;;;;;;5054138;28;20302;-69
2022/02/03 01:11:45;;;;;;;27.00;21.50;;;7.70;99.90;;;;;;5053974;28;20199;-69
2022/02/03 01:14:17;;;;;;;26.85;20.08;;;7.80;99.90;;;;;;5054386;28;20732;-69
2022/02/03 01:17:02;;;;;;;24.17;19.67;;;7.70;99.90;;;;;;5054077;28;20214;-69
2022/02/03 01:33:43;;;;;;;19.10;14.05;;;7.80;99.90;;;;;;5053724;28;20229;-68
2022/02/03 01:44:55;;;;;;;24.95;18.00;;;7.80;99.90;;;;;;4967162;28;20213;-68
2022/02/03 01:47:38;;;;;;;23.42;16.75;;;7.90;99.90;;;;;;5031849;28;20204;-67
2022/02/03 01:52:54;;;;;;;19.90;16.00;;;8.00;99.90;;;;;;5052732;28;20214;-68
2022/02/03 01:55:24;;;;;;;20.55;15.80;;;8.00;99.90;;;;;;5053028;28;20227;-68
2022/02/03 01:57:58;;;;;;;19.13;14.80;;;8.10;99.90;;;;;;5053055;28;20200;-68
2022/02/03 02:00:26;;;;;;;15.13;13.48;;;8.30;99.90;;;;;;5052677;28;20196;-68
2022/02/03 02:03:13;;;;;;;17.42;12.75;;;8.30;99.90;;;;;;5052862;28;20215;-68
2022/02/03 02:06:10;;;;;;;15.15;11.68;;;8.30;99.90;;;;;;5053266;28;20725;-69
2022/02/03 02:08:44;;;;;;;12.57;10.50;;;8.30;99.90;;;;;;5053075;28;20234;-68
2022/02/03 02:11:32;;;;;;;10.70;9.48;;;8.50;99.90;;;;;;5052735;28;20207;-68
2022/02/03 02:14:15;;;;;;;10.45;9.07;;;8.50;99.90;;;;;;5052835;28;20303;-69
2022/02/03 02:17:29;;;;;;;9.45;8.52;;;8.60;99.90;;;;;;5053114;28;20240;-69
2022/02/03 02:20:03;;;;;;;10.75;9.15;;;8.70;99.90;;;;;;5052478;28;20203;-68
2022/02/03 02:39:49;;;;;;;20.88;16.40;;;8.40;99.90;;;;;;5053918;28;20245;-68
2022/02/03 02:42:35;;;;;;;24.27;17.25;;;8.20;99.90;;;;;;5054051;28;20203;-68
2022/02/03 02:45:06;;;;;;;26.20;17.92;;;8.10;99.90;;;;;;5053969;28;20230;-68
2022/02/03 02:47:45;;;;;;;20.77;16.38;;;8.10;99.90;;;;;;5053834;28;20289;-68
2022/02/03 02:50:16;;;;;;;19.58;15.70;;;8.10;99.90;;;;;;5053438;28;20229;-68
2022/02/03 02:53:10;;;;;;;16.65;14.77;;;8.20;99.90;;;;;;5053738;28;20215;-68
2022/02/03 02:55:54;;;;;;;17.95;14.15;;;8.40;99.90;;;;;;5053647;28;20227;-68
2022/02/03 03:29:19;;;;;;;10.45;8.65;;;8.50;99.90;;;;;;5053296;28;20234;-68
2022/02/03 03:34:49;;;;;;;11.18;9.30;;;8.50;99.90;;;;;;5051141;28;20227;-68
2022/02/03 03:37:27;;;;;;;11.80;10.07;;;8.50;99.90;;;;;;5053224;28;20208;-68
2022/02/03 03:39:58;;;;;;;14.48;10.95;;;8.40;99.90;;;;;;5053041;28;20214;-68
2022/02/03 03:42:33;;;;;;;12.20;10.27;;;8.30;99.90;;;;;;5052917;28;20203;-68
2022/02/03 03:45:02;;;;;;;13.10;10.15;;;8.30;99.90;;;;;;5052876;28;20253;-68
2022/02/03 03:47:34;;;;;;;14.10;11.52;;;8.30;99.90;;;;;;5053096;28;20206;-68
2022/02/03 03:50:06;;;;;;;15.15;12.60;;;8.30;99.90;;;;;;5053072;28;20591;-68
2022/02/03 03:52:43;;;;;;;17.35;12.65;;;8.40;99.90;;;;;;5053024;28;20302;-68
2022/02/03 03:55:19;;;;;;;14.07;11.77;;;8.50;99.90;;;;;;5053076;28;20230;-68
2022/02/03 03:58:04;;;;;;;12.65;11.30;;;8.60;99.90;;;;;;5053165;28;20596;-68
2022/02/03 04:00:49;;;;;;;13.18;11.07;;;8.60;99.90;;;;;;5052920;28;20195;-68
2022/02/03 04:29:26;;;;;;;6.20;5.60;;;8.40;99.90;;;;;;5056432;28;20277;-68
2022/02/03 04:38:13;;;;;;;6.50;5.00;;;8.50;99.90;;;;;;5091511;27;20518;-68
2022/02/03 04:41:19;;;;;;;4.90;4.38;;;8.50;99.90;;;;;;5090896;28;20213;-68
2022/02/03 04:44:47;;;;;;;6.57;5.97;;;8.60;99.90;;;;;;5091389;28;20202;-68
2022/02/03 04:54:07;;;;;;;6.40;5.40;;;8.80;99.90;;;;;;5070968;28;20337;-68
2022/02/03 04:57:16;;;;;;;7.63;5.40;;;8.70;99.90;;;;;;5070839;28;20219;-68
2022/02/03 05:03:15;;;;;;;6.55;5.55;;;8.80;99.90;;;;;;5070574;28;20626;-68
2022/02/03 05:05:58;;;;;;;6.57;5.60;;;8.80;99.90;;;;;;5070239;28;20766;-68
2022/02/03 05:08:47;;;;;;;14.77;11.13;;;8.80;99.90;;;;;;5070852;28;20242;-68
2022/02/03 05:11:50;;;;;;;9.85;8.20;;;8.80;99.90;;;;;;5070232;28;20736;-68
2022/02/03 05:15:03;;;;;;;7.85;6.60;;;8.70;99.90;;;;;;5070192;28;20305;-68
2022/02/03 05:20:55;;;;;;;7.47;6.18;;;8.70;99.90;;;;;;5070051;28;20195;-68
2022/02/03 05:24:02;;;;;;;7.47;6.60;;;8.70;99.90;;;;;;5070206;28;20198;-68
2022/02/03 05:33:23;;;;;;;7.70;6.35;;;8.70;99.90;;;;;;5069906;28;20230;-68
2022/02/03 05:42:42;;;;;;;7.30;6.53;;;8.50;99.90;;;;;;5063102;28;20202;-68
2022/02/03 05:45:37;;;;;;;6.93;6.15;;;8.50;99.90;;;;;;5069250;28;20223;-68
2022/02/03 06:02:33;;;;;;;8.23;7.32;;;8.20;99.90;;;;;;5055827;28;20203;-68
2022/02/03 06:05:06;;;;;;;8.38;6.88;;;8.20;99.90;;;;;;5055533;28;20626;-68
2022/02/03 06:07:51;;;;;;;8.70;7.15;;;8.20;99.90;;;;;;5056157;28;20258;-68
2022/02/03 06:13:11;;;;;;;6.88;5.93;;;8.10;99.90;;;;;;5055921;28;20776;-68
2022/02/03 06:15:43;;;;;;;6.23;5.40;;;8.20;99.90;;;;;;5055554;28;20705;-68
2022/02/03 06:21:24;;;;;;;4.80;4.25;;;8.20;99.90;;;;;;5055889;28;20273;-68
2022/02/03 06:23:59;;;;;;;5.45;4.63;;;8.20;99.90;;;;;;5056504;28;20218;-69
2022/02/03 06:29:16;;;;;;;9.23;6.45;;;8.20;99.90;;;;;;5056406;28;20241;-69
2022/02/03 06:31:44;;;;;;;8.82;6.75;;;8.20;99.90;;;;;;5055895;28;20222;-68
2022/02/03 06:34:12;;;;;;;9.88;7.60;;;8.30;99.90;;;;;;5056297;28;20289;-69
2022/02/03 06:36:40;;;;;;;9.77;7.85;;;8.20;99.90;;;;;;5055530;28;20223;-69
2022/02/03 06:39:15;;;;;;;13.55;9.32;;;8.20;99.90;;;;;;5056084;28;20203;-69
2022/02/03 06:41:43;;;;;;;11.27;9.77;;;8.20;99.90;;;;;;5055235;28;20207;-69
2022/02/03 06:44:11;;;;;;;9.50;8.40;;;8.20;99.90;;;;;;5055688;28;20309;-69
2022/02/03 06:46:43;;;;;;;11.50;10.02;;;8.30;99.90;;;;;;5055584;28;20204;-70
2022/02/03 06:49:17;;;;;;;10.90;9.75;;;8.20;99.90;;;;;;5055603;28;20210;-68
2022/02/03 06:51:51;;;;;;;9.32;8.32;;;8.10;99.90;;;;;;5055190;28;20592;-68
2022/02/03 06:54:26;;;;;;;10.52;8.02;;;8.20;99.90;;;;;;5055128;28;20234;-67
2022/02/03 06:56:57;;;;;;;7.70;6.90;;;8.10;99.90;;;;;;5054819;28;20207;-67
2022/02/03 06:59:31;;;;;;;6.82;5.90;;;8.20;99.90;;;;;;5054113;28;20226;-67
2022/02/03 07:01:59;;;;;;;6.82;6.13;;;8.20;99.90;;;;;;5055294;28;20560;-67
2022/02/03 07:04:35;;;;;;;6.97;5.75;;;8.30;99.90;;;;;;5055312;28;20277;-68
2022/02/03 07:07:02;;;;;;;5.35;4.85;;;8.30;99.90;;;;;;5055207;28;20268;-68
2022/02/03 07:09:29;;;;;;;7.50;5.78;;;8.30;99.90;;;;;;5055323;28;20253;-68
2022/02/03 07:11:56;;;;;;;6.82;6.10;;;8.40;99.90;;;;;;5054653;28;20799;-68
2022/02/03 07:14:24;;;;;;;11.05;7.53;;;8.50;99.90;;;;;;5054675;28;20319;-68
2022/02/03 07:16:52;;;;;;;10.90;8.80;;;8.50;99.90;;;;;;5054719;28;20255;-67
2022/02/03 07:19:20;;;;;;;10.82;8.40;;;8.40;99.90;;;;;;5054662;28;20208;-67
2022/02/03 07:21:48;;;;;;;13.93;11.32;;;8.30;99.90;;;;;;5054676;28;20302;-68
2022/02/03 07:24:14;;;;;;;16.85;11.85;;;8.20;99.90;;;;;;5054934;28;20230;-68
2022/02/03 07:26:41;;;;;;;14.48;11.25;;;8.20;99.90;;;;;;5054594;28;20236;-68
2022/02/03 07:29:08;;;;;;;15.20;11.82;;;8.20;99.90;;;;;;5054498;28;20565;-68
2022/02/03 07:31:35;;;;;;;18.40;10.48;;;8.30;99.90;;;;;;5054443;28;20298;-68
2022/02/03 07:34:09;;;;;;;12.52;9.77;;;8.40;99.90;;;;;;5054962;28;20199;-68
2022/02/03 07:36:37;;;;;;;10.57;8.82;;;8.50;99.90;;;;;;5054485;28;20232;-68
2022/02/03 07:39:05;;;;;;;8.60;6.82;;;8.50;99.90;;;;;;5054499;28;20199;-68
2022/02/03 07:41:33;;;;;;;16.60;11.25;;;8.50;99.90;;;;;;5054387;28;20298;-67
2022/02/03 07:44:00;;;;;;;7.18;6.47;;;8.60;99.90;;;;;;5054298;28;20199;-69
2022/02/03 07:46:30;;;;;;;8.27;6.95;;;8.70;99.90;;;;;;5054379;28;20295;-70
2022/02/03 07:48:57;;;;;;;7.53;6.20;;;8.80;99.90;;;;;;5055086;28;20206;-69
2022/02/03 07:51:24;;;;;;;7.70;6.88;;;8.90;99.90;;;;;;5054304;28;20205;-69
2022/02/03 07:53:52;;;;;;;10.38;6.10;;;8.90;99.90;;;;;;5054376;28;20204;-69
2022/02/03 07:56:19;;;;;;;7.93;6.63;;;9.00;99.90;;;;;;5054277;28;20210;-69
2022/02/03 07:58:46;;;;;;;9.20;7.63;;;9.10;99.90;;;;;;5054099;28;20318;-70
2022/02/03 08:01:13;;;;;;;15.77;12.00;;;9.20;99.90;;;;;;5053947;28;20211;-69
2022/02/03 08:03:42;;;;;;;8.02;6.63;;;9.20;99.90;;;;;;5053920;28;20245;-69
2022/02/03 08:06:18;;;;;;;6.93;5.60;;;9.30;99.90;;;;;;5053815;28;20223;-69
2022/02/03 08:08:49;;;;;;;8.15;6.43;;;9.40;99.90;;;;;;5053742;28;20720;-70
2022/02/03 08:11:22;;;;;;;7.07;6.20;;;9.40;99.90;;;;;;5048850;28;20195;-69
2022/02/03 08:13:54;;;;;;;6.65;5.30;;;9.40;99.90;;;;;;5043165;28;20211;-68
2022/02/03 08:16:26;;;;;;;5.95;5.25;;;9.50;99.90;;;;;;5052438;28;20298;-69
2022/02/03 08:18:59;;;;;;;7.18;5.50;;;9.50;99.90;;;;;;5052786;28;20290;-68
2022/02/03 08:21:26;;;;;;;7.43;5.70;;;9.50;99.90;;;;;;5052414;28;20203;-68
2022/02/03 08:24:15;;;;;;;5.93;5.30;;;9.50;99.90;;;;;;5052212;28;20203;-68
2022/02/03 08:27:06;;;;;;;6.10;5.50;;;9.60;99.90;;;;;;5052001;28;20257;-68
2022/02/03 08:32:23;;;;;;;6.32;5.15;;;9.70;99.90;;;;;;5052336;28;20708;-68
2022/02/03 08:37:46;;;;;;;6.13;5.57;;;9.90;99.90;;;;;;5036084;28;20219;-68
2022/02/03 08:40:22;;;;;;;5.80;5.20;;;9.90;99.90;;;;;;5052279;28;20305;-69
2022/02/03 08:42:51;;;;;;;6.88;6.18;;;9.90;99.90;;;;;;5052145;28;20576;-68
2022/02/03 08:45:17;;;;;;;5.43;4.93;;;9.80;99.90;;;;;;5051827;28;20227;-69
2022/02/03 08:47:44;;;;;;;5.22;4.75;;;9.70;99.90;;;;;;5051925;28;20207;-68
2022/02/03 08:50:11;;;;;;;6.00;5.13;;;9.70;99.90;;;;;;5052355;28;20199;-69
2022/02/03 08:52:48;;;;;;;5.78;4.97;;;9.90;99.90;;;;;;5052114;28;20257;-69
2022/02/03 08:55:24;;;;;;;5.40;4.90;;;10.00;99.90;;;;;;5051990;28;20273;-69
2022/02/03 09:01:02;;;;;;;8.90;8.00;;;9.80;99.90;;;;;;5053281;28;20207;-68
2022/02/03 09:37:08;;;;;;;5.45;4.45;;;10.60;99.90;;;;;;5056341;28;20580;-68
2022/02/03 09:40:07;;;;;;;4.40;4.00;;;10.60;99.90;;;;;;5056896;28;20207;-68
2022/02/03 09:56:52;;;;;;;3.50;3.20;;;10.70;99.90;;;;;;5056327;28;20171;-68
2022/02/03 09:59:20;;;;;;;5.35;3.97;;;10.60;99.90;;;;;;5056244;28;20276;-67
2022/02/03 10:01:53;;;;;;;3.55;3.25;;;10.70;99.90;;;;;;5056073;28;20226;-68
2022/02/03 10:04:43;;;;;;;3.05;2.85;;;10.60;99.90;;;;;;5056029;28;20231;-68
2022/02/03 10:07:16;;;;;;;2.85;2.45;;;10.70;99.90;;;;;;5056394;28;20199;-68
2022/02/03 10:09:44;;;;;;;3.00;2.80;;;10.70;99.90;;;;;;5056046;28;20207;-68
2022/02/03 10:12:12;;;;;;;3.03;2.83;;;10.80;99.90;;;;;;5055971;28;20207;-67
2022/02/03 10:14:41;;;;;;;2.50;2.20;;;10.80;99.90;;;;;;5055970;28;20223;-68
2022/02/03 10:17:09;;;;;;;2.55;2.35;;;10.80;99.90;;;;;;5055882;28;20223;-68
2022/02/03 10:19:41;;;;;;;2.70;2.47;;;10.90;99.90;;;;;;5055788;28;20207;-68
2022/02/03 10:22:16;;;;;;;2.60;2.40;;;10.90;99.90;;;;;;5055693;28;20298;-68
2022/02/03 10:24:47;;;;;;;2.60;2.40;;;11.00;99.90;;;;;;5055641;28;20658;-68
2022/02/03 10:27:27;;;;;;;2.22;2.10;;;11.00;99.90;;;;;;5055737;28;20195;-68
2022/02/03 10:30:22;;;;;;;2.58;2.38;;;11.10;99.90;;;;;;5055497;28;20207;-67
2022/02/03 10:32:49;;;;;;;2.40;2.08;;;11.20;99.90;;;;;;5055539;28;20628;-68
2022/02/03 10:35:23;;;;;;;2.10;2.00;;;11.20;99.90;;;;;;5055301;28;20306;-68
2022/02/03 10:38:31;;;;;;;2.00;1.90;;;11.30;99.90;;;;;;5055489;28;20223;-68
2022/02/03 10:47:01;;;;;;;2.50;2.30;;;11.40;99.90;;;;;;5055419;28;20192;-68
2022/02/03 10:52:40;;;;;;;2.33;2.22;;;11.50;99.90;;;;;;5052334;28;20287;-68
2022/02/03 10:58:23;;;;;;;2.50;2.30;;;11.50;99.90;;;;;;4993554;28;20228;-68
2022/02/03 11:01:05;;;;;;;2.50;2.30;;;11.40;99.90;;;;;;4993444;28;20205;-68
2022/02/03 11:03:51;;;;;;;4.75;2.10;;;11.40;99.90;;;;;;5033922;28;20203;-68
2022/02/03 11:06:27;;;;;;;2.53;2.33;;;11.50;99.90;;;;;;5054661;28;20661;-68
2022/02/03 11:09:07;;;;;;;2.40;1.90;;;11.50;99.90;;;;;;5055370;28;20199;-68
2022/02/03 11:11:37;;;;;;;1.88;1.77;;;11.50;99.90;;;;;;5054636;28;20719;-68
2022/02/03 11:14:05;;;;;;;2.03;1.90;;;11.60;99.90;;;;;;5054782;28;20242;-68
2022/02/03 11:16:36;;;;;;;2.20;2.10;;;11.70;99.90;;;;;;5054780;28;20210;-68
2022/02/03 11:19:06;;;;;;;2.50;2.20;;;11.70;99.90;;;;;;5054665;28;20227;-68
2022/02/03 11:21:34;;;;;;;2.42;2.33;;;11.80;99.90;;;;;;5054768;28;20265;-68
2022/02/03 11:24:08;;;;;;;2.15;1.95;;;11.80;99.90;;;;;;5054494;28;20250;-68
2022/02/03 11:26:44;;;;;;;2.78;2.58;;;11.90;99.90;;;;;;5055379;28;20278;-68
2022/02/03 11:32:14;;;;;;;2.90;2.70;;;12.00;99.90;;;;;;5054398;28;20200;-68
2022/02/03 11:41:13;;;;;;;3.35;3.05;;;12.00;99.90;;;;;;5026641;28;20226;-68
2022/02/03 11:44:18;;;;;;;2.78;2.58;;;11.80;99.90;;;;;;5054083;28;20280;-68
2022/02/03 11:47:05;;;;;;;3.33;2.78;;;11.80;99.90;;;;;;5053881;28;20207;-68
2022/02/03 11:50:03;;;;;;;3.20;3.00;;;11.80;99.90;;;;;;5054167;28;20661;-68
2022/02/03 11:53:06;;;;;;;2.80;2.60;;;11.80;99.90;;;;;;5054186;28;20203;-68
2022/02/03 11:56:04;;;;;;;2.72;2.53;;;11.90;99.90;;;;;;5053973;28;20228;-68
2022/02/03 12:01:40;;;;;;;3.05;2.85;;;12.10;99.90;;;;;;5043229;28;20204;-68
2022/02/03 12:15:39;;;;;;;3.00;2.80;;;12.30;99.90;;;;;;5043194;28;20220;-68
2022/02/03 12:18:15;;;;;;;2.92;2.72;;;12.30;99.90;;;;;;5053627;28;20747;-68
2022/02/03 12:20:49;;;;;;;3.30;3.00;;;12.40;99.90;;;;;;5053488;28;20199;-68
2022/02/03 12:23:38;;;;;;;3.47;3.17;;;12.30;99.90;;;;;;5053675;28;20313;-68
2022/02/03 12:26:11;;;;;;;3.30;3.03;;;12.40;99.90;;;;;;5053740;28;20631;-68
2022/02/03 12:28:48;;;;;;;3.30;3.00;;;12.30;99.90;;;;;;5053824;28;20612;-68
2022/02/03 12:37:05;;;;;;;2.80;2.60;;;12.50;99.90;;;;;;5053502;28;20264;-68
2022/02/03 12:39:41;;;;;;;2.90;2.70;;;12.60;99.90;;;;;;5053583;28;20199;-68
2022/02/03 12:42:19;;;;;;;2.47;2.28;;;12.60;99.90;;;;;;5053381;28;20560;-68
2022/02/03 12:44:46;;;;;;;2.63;2.42;;;12.60;99.90;;;;;;5053691;28;20238;-68
2022/02/03 12:47:15;;;;;;;2.75;2.55;;;12.50;99.90;;;;;;5053497;28;20612;-68
2022/02/03 12:49:42;;;;;;;2.50;2.30;;;12.60;99.90;;;;;;5053130;28;20203;-68
2022/02/03 12:52:25;;;;;;;2.50;2.33;;;12.60;99.90;;;;;;5053384;28;20681;-67
2022/02/03 12:54:52;;;;;;;4.07;2.50;;;12.70;99.90;;;;;;5053104;28;20223;-68
2022/02/03 12:57:33;;;;;;;4.47;2.50;;;12.80;99.90;;;;;;5053573;28;20543;-68
2022/02/03 13:00:22;;;;;;;2.90;2.70;;;12.90;99.90;;;;;;5057411;28;20297;-68
2022/02/03 13:02:54;;;;;;;2.80;2.60;;;13.10;99.90;;;;;;5057391;28;20203;-68
2022/02/03 13:05:24;;;;;;;3.10;2.80;;;13.10;99.90;;;;;;5057262;28;20280;-68
2022/02/03 13:07:52;;;;;;;3.13;2.85;;;13.10;99.90;;;;;;5057550;28;20195;-68
2022/02/03 13:10:22;;;;;;;2.45;2.28;;;13.00;99.90;;;;;;5057318;28;20249;-68
2022/02/03 13:12:56;;;;;;;2.67;2.33;;;13.00;99.90;;;;;;5056885;28;20233;-68
2022/02/03 13:15:31;;;;;;;2.15;2.05;;;13.00;99.90;;;;;;5056954;28;20218;-68
2022/02/03 13:18:03;;;;;;;3.00;2.58;;;12.80;99.90;;;;;;5056766;28;20221;-68
2022/02/03 13:20:37;;;;;;;2.78;2.47;;;12.80;99.90;;;;;;5056683;28;20203;-68
2022/02/03 13:23:08;;;;;;;4.13;2.58;;;12.80;99.90;;;;;;5056972;28;20214;-67
2022/02/03 13:25:47;;;;;;;3.03;2.72;;;12.70;99.90;;;;;;5056873;28;20250;-68
2022/02/03 13:28:17;;;;;;;2.50;2.30;;;12.70;99.90;;;;;;5056852;28;20230;-68
2022/02/03 13:30:49;;;;;;;3.75;2.33;;;12.60;99.90;;;;;;5056646;28;20214;-68
2022/02/03 13:33:25;;;;;;;2.50;2.20;;;12.60;99.90;;;;;;5056640;28;20728;-68
2022/02/03 13:35:56;;;;;;;3.15;2.05;;;12.60;99.90;;;;;;5056464;28;20322;-68
2022/02/03 13:38:39;;;;;;;2.80;2.50;;;12.50;99.90;;;;;;5056657;28;20255;-68
2022/02/03 13:41:11;;;;;;;2.00;1.90;;;12.60;99.90;;;;;;5056555;28;20207;-68
2022/02/03 13:43:40;;;;;;;2.35;2.15;;;12.50;99.90;;;;;;5056462;28;20700;-68
2022/02/03 13:46:08;;;;;;;4.53;2.67;;;12.40;99.90;;;;;;5056466;28;20223;-68
2022/02/03 13:48:37;;;;;;;2.67;2.20;;;12.40;99.90;;;;;;5056407;28;20211;-68
2022/02/03 13:51:08;;;;;;;2.30;2.10;;;12.40;99.90;;;;;;5056005;28;20207;-68
2022/02/03 13:53:42;;;;;;;2.42;2.25;;;12.40;99.90;;;;;;5056243;28;20661;-68
2022/02/03 14:16:00;;;;;;;2.58;2.17;;;12.60;99.90;;;;;;5055917;28;20261;-67
2022/02/03 14:18:49;;;;;;;1.95;1.85;;;12.50;99.90;;;;;;5055934;28;20650;-68
2022/02/03 14:21:20;;;;;;;2.15;2.00;;;12.50;99.90;;;;;;5055569;28;20298;-67
2022/02/03 14:27:02;;;;;;;2.40;2.20;;;12.40;99.90;;;;;;5055884;28;20226;-68
2022/02/03 14:29:32;;;;;;;2.03;1.92;;;12.50;99.90;;;;;;5055568;28;20199;-68
2022/02/03 14:32:02;;;;;;;2.58;1.90;;;12.60;99.90;;;;;;5055453;28;20204;-68
2022/02/03 14:34:32;;;;;;;3.17;2.90;;;12.60;99.90;;;;;;5055495;28;20231;-68
2022/02/03 14:37:06;;;;;;;2.28;2.17;;;12.50;99.90;;;;;;5055230;28;20696;-68
2022/02/03 14:39:48;;;;;;;1.73;1.63;;;12.50;99.90;;;;;;5055527;28;20227;-68
2022/02/03 14:42:16;;;;;;;1.90;1.75;;;12.50;99.90;;;;;;5055610;28;20535;-68
2022/02/03 14:44:43;;;;;;;2.70;2.08;;;12.50;99.90;;;;;;5055476;28;20632;-68
2022/02/03 14:47:10;;;;;;;1.70;1.60;;;12.30;99.90;;;;;;5055403;28;20200;-68
2022/02/03 14:49:40;;;;;;;2.85;2.50;;;12.40;99.90;;;;;;5055418;28;20290;-68
2022/02/03 14:52:12;;;;;;;3.13;2.63;;;12.30;99.90;;;;;;5055326;28;20573;-68
2022/02/03 15:00:11;;;;;;;2.92;2.65;;;12.20;99.90;;;;;;5054947;28;20364;-68
2022/02/03 15:02:38;;;;;;;3.00;2.70;;;12.20;99.90;;;;;;5055141;28;20213;-69
2022/02/03 15:05:09;;;;;;;3.15;2.90;;;12.20;99.90;;;;;;5054847;28;20220;-66
2022/02/03 15:07:41;;;;;;;3.10;2.90;;;12.10;99.90;;;;;;5054810;28;20660;-66
2022/02/03 15:10:40;;;;;;;3.05;2.75;;;12.10;99.90;;;;;;5054742;28;20203;-66
2022/02/03 15:13:12;;;;;;;3.15;2.85;;;12.20;99.90;;;;;;5054955;28;20269;-66
2022/02/03 15:15:39;;;;;;;4.47;3.45;;;12.10;99.90;;;;;;5054635;28;20223;-66
2022/02/03 15:18:08;;;;;;;6.43;3.80;;;12.00;99.90;;;;;;5054637;28;20566;-66
2022/02/03 15:20:35;;;;;;;3.83;3.35;;;12.10;99.90;;;;;;5053720;28;20608;-66
2022/02/03 15:23:04;;;;;;;3.05;2.78;;;12.00;99.90;;;;;;5054471;28;20203;-66
2022/02/03 15:25:30;;;;;;;2.78;2.58;;;11.90;99.90;;;;;;5054610;28;20223;-66
2022/02/03 15:27:57;;;;;;;6.32;4.35;;;11.90;99.90;;;;;;5054508;28;20214;-66
2022/02/03 15:30:25;;;;;;;4.25;2.97;;;11.90;99.90;;;;;;5054180;28;20727;-66
2022/02/03 15:32:52;;;;;;;6.32;4.05;;;12.00;99.90;;;;;;5054402;28;20669;-66
2022/02/03 15:35:25;;;;;;;3.90;3.40;;;12.00;99.90;;;;;;5053945;28;20254;-67
2022/02/03 15:37:53;;;;;;;8.15;4.70;;;11.80;99.90;;;;;;5054830;28;20200;-66
2022/02/03 15:40:24;;;;;;;7.90;4.75;;;11.70;99.90;;;;;;5054052;28;20219;-66
2022/02/03 15:42:56;;;;;;;4.68;4.15;;;11.80;99.90;;;;;;5054380;28;20231;-66
2022/02/03 15:45:23;;;;;;;9.30;5.90;;;11.70;99.90;;;;;;5054110;28;20246;-66
2022/02/03 15:47:55;;;;;;;3.80;3.50;;;11.60;99.90;;;;;;5054317;28;20661;-66
2022/02/03 16:01:41;;;;;;;11.52;6.20;;;11.40;99.90;;;;;;5053749;28;20248;-66
2022/02/03 16:04:25;;;;;;;14.27;7.65;;;11.40;99.90;;;;;;5053811;28;20211;-66
2022/02/03 16:17:49;;;;;;;3.75;3.40;;;10.90;99.90;;;;;;5036712;28;20199;-66
2022/02/03 16:20:20;;;;;;;4.38;3.50;;;10.90;99.90;;;;;;5053412;28;20242;-66
2022/02/03 16:22:52;;;;;;;3.78;3.05;;;10.80;99.90;;;;;;5053644;28;20207;-66
2022/02/03 16:25:40;;;;;;;4.30;3.90;;;10.70;99.90;;;;;;5053333;28;20709;-66
2022/02/03 16:50:39;;;;;;;4.93;4.53;;;10.20;99.90;;;;;;5022537;28;20546;-69
2022/02/03 16:53:07;;;;;;;9.25;5.00;;;10.20;99.90;;;;;;5053483;28;20234;-69
2022/02/03 16:55:36;;;;;;;4.40;4.10;;;10.20;99.90;;;;;;5053246;28;20219;-69
2022/02/03 16:58:07;;;;;;;4.70;4.10;;;10.20;99.90;;;;;;5053529;28;20203;-68
2022/02/03 17:00:35;;;;;;;4.20;3.90;;;10.20;99.90;;;;;;5053051;28;20231;-68
2022/02/03 17:03:02;;;;;;;4.68;4.28;;;10.20;99.90;;;;;;5053371;28;20207;-69
2022/02/03 17:05:30;;;;;;;5.57;5.05;;;10.20;99.90;;;;;;5053235;28;20230;-68
2022/02/03 17:07:57;;;;;;;6.40;4.65;;;10.20;99.90;;;;;;5053374;28;20298;-69
2022/02/03 17:10:24;;;;;;;5.15;4.30;;;10.20;99.90;;;;;;5052973;28;20209;-69
2022/02/03 17:12:51;;;;;;;15.15;9.75;;;10.30;99.90;;;;;;5053106;28;20233;-69
2022/02/03 17:15:20;;;;;;;7.90;5.30;;;10.30;99.90;;;;;;5053196;28;20227;-69
2022/02/03 17:17:50;;;;;;;5.05;4.65;;;10.20;99.90;;;;;;5053156;28;20268;-69
2022/02/03 17:20:20;;;;;;;5.00;4.60;;;10.20;99.90;;;;;;5052682;28;20230;-68
2022/02/03 17:22:50;;;;;;;5.50;5.00;;;10.20;99.90;;;;;;5053093;28;20199;-69
2022/02/03 17:25:22;;;;;;;5.78;5.28;;;10.20;99.90;;;;;;5052982;28;20227;-68
2022/02/03 17:27:55;;;;;;;5.47;4.97;;;10.20;99.90;;;;;;5053218;28;20253;-69
2022/02/03 17:30:29;;;;;;;6.25;5.65;;;10.10;99.90;;;;;;5052824;28;20726;-68
2022/02/03 18:02:56;;;;;;;10.82;6.75;;;9.90;99.90;;;;;;5056468;28;20225;-68
2022/02/03 18:03:52;;;;;;;6.75;5.22;;;9.70;99.90;;;;;;5056242;28;20207;-69
2022/02/03 18:09:22;;;;;;;7.10;6.30;;;9.70;99.90;;;;;;5056240;28;20278;-68
2022/02/03 18:11:59;;;;;;;6.70;6.00;;;9.80;99.90;;;;;;5056070;28;20212;-68
2022/02/03 18:25:59;;;;;;;8.63;7.82;;;9.60;99.90;;;;;;5111250;28;20226;-67
2022/02/03 18:31:12;;;;;;;11.43;8.27;;;9.50;99.90;;;;;;5110955;28;20280;-67
2022/02/03 18:34:08;;;;;;;9.10;8.30;;;9.50;99.90;;;;;;5111915;28;20197;-67
2022/02/03 18:36:55;;;;;;;9.15;8.00;;;9.60;99.90;;;;;;5111302;28;20201;-67
2022/02/03 18:50:28;;;;;;;8.70;7.90;;;9.60;99.90;;;;;;5110844;28;20213;-67
2022/02/03 18:55:50;;;;;;;10.90;8.50;;;9.60;99.90;;;;;;5100099;28;20218;-68
2022/02/03 18:58:30;;;;;;;10.05;8.90;;;9.60;99.90;;;;;;5101527;28;20224;-67
2022/02/03 19:01:18;;;;;;;8.80;7.90;;;9.60;99.90;;;;;;5110209;28;20219;-67
2022/02/03 19:09:47;;;;;;;10.15;9.13;;;9.60;99.90;;;;;;5033255;28;20613;-67
2022/02/03 19:15:19;;;;;;;10.10;9.07;;;9.70;99.90;;;;;;5068284;28;20213;-67
2022/02/03 19:29:13;;;;;;;11.20;10.10;;;9.40;99.90;;;;;;5109100;28;20281;-67
2022/02/03 20:04:56;;;;;;;17.75;14.25;;;8.70;99.90;;;;;;5095336;28;20756;-67
2022/02/03 20:07:29;;;;;;;17.08;14.75;;;8.60;99.90;;;;;;5095060;28;20208;-67
2022/02/03 20:10:11;;;;;;;16.27;14.32;;;8.60;99.90;;;;;;5094680;28;20202;-67
2022/02/03 20:12:38;;;;;;;17.25;15.00;;;8.60;99.90;;;;;;5094740;28;20672;-67
2022/02/03 20:15:09;;;;;;;17.23;14.65;;;8.50;99.90;;;;;;5094959;28;20257;-67
2022/02/03 20:17:36;;;;;;;19.17;15.25;;;8.50;99.90;;;;;;5094650;28;20549;-68
2022/02/03 20:20:03;;;;;;;16.70;14.88;;;8.60;99.90;;;;;;5094278;28;20232;-67
2022/02/03 20:22:34;;;;;;;20.98;14.90;;;8.50;99.90;;;;;;5094118;28;20292;-67
2022/02/03 20:25:02;;;;;;;16.63;14.30;;;8.40;99.90;;;;;;5094694;28;20307;-67
2022/02/03 20:27:29;;;;;;;18.98;14.82;;;8.30;99.90;;;;;;5094602;28;20617;-67
2022/02/03 20:29:56;;;;;;;18.90;15.77;;;8.30;99.90;;;;;;5093833;28;20237;-66
2022/02/03 20:32:24;;;;;;;23.15;17.30;;;8.30;99.90;;;;;;5094304;28;20238;-67
2022/02/03 20:34:52;;;;;;;19.65;16.23;;;8.30;99.90;;;;;;5093887;28;20267;-67
2022/02/03 20:37:19;;;;;;;19.10;15.90;;;8.30;99.90;;;;;;5094272;28;20208;-66
2022/02/03 20:39:45;;;;;;;19.45;14.95;;;8.20;99.90;;;;;;5093658;28;20222;-67
2022/02/03 20:42:16;;;;;;;21.00;16.25;;;8.20;99.90;;;;;;5092727;28;20744;-67
2022/02/03 20:44:43;;;;;;;17.77;14.32;;;8.20;99.90;;;;;;5093756;28;20583;-67
2022/02/03 20:47:10;;;;;;;19.60;15.75;;;8.20;99.90;;;;;;5093848;28;20221;-67
2022/02/03 20:49:39;;;;;;;20.33;16.27;;;8.20;99.90;;;;;;5093401;28;20297;-67
2022/02/03 20:52:07;;;;;;;24.70;19.25;;;8.30;99.90;;;;;;5093554;28;20768;-67
2022/02/03 20:54:34;;;;;;;27.95;21.70;;;8.20;99.90;;;;;;5093728;28;20240;-67
2022/02/03 20:57:02;;;;;;;21.83;19.10;;;8.20;99.90;;;;;;5093507;28;20206;-67
2022/02/03 20:59:37;;;;;;;24.92;18.63;;;8.20;99.90;;;;;;5093487;28;20759;-67
2022/02/03 21:02:10;;;;;;;20.17;16.75;;;8.20;99.90;;;;;;5093363;28;20602;-67
2022/02/03 21:04:56;;;;;;;19.95;17.85;;;8.20;99.90;;;;;;5093263;28;20222;-68
2022/02/03 21:07:23;;;;;;;19.48;17.17;;;8.20;99.90;;;;;;5094136;28;20229;-68
2022/02/03 21:09:50;;;;;;;22.38;19.40;;;8.20;99.90;;;;;;5093174;28;20238;-67
2022/02/03 21:12:17;;;;;;;21.38;18.60;;;8.20;99.90;;;;;;5092989;28;20288;-67
2022/02/03 21:14:45;;;;;;;33.97;25.13;;;8.20;99.90;;;;;;5093189;28;20230;-67